Mid-Island, NY

5:58 AM EDT on April 28, 2017 (GMT -0400)
MGPNN6 | | Change Station
Active Advisory: Special Statement

Elev 29 ft 40.60 °N, 74.18 °W | Updated 55 minutes ago

Overcast
Overcast
56.0 °F
Feels Like 56.0 °F
N
3.0
Wind Variable Wind from NNW
Gusts 4.0 mph

Today
High -- | Low -- °F
--% Chance of Precip.
Yesterday
High -- | Low -- °F
Precip. -- in
Pressure 29.91 in
Visibility 3.0 miles
Clouds Overcast 200 ft
Dew Point Not available.
Humidity Not available.
Rainfall in
Snow Depth Not available.
5:59 AM 7:49 PM
Waxing Crescent, 5% visible
METAR KLDJ 280955Z AUTO 00000KT 3SM BR OVC002 14/14 A2991 RMK AO2 LTG DSNT E T01410138
Pressure 29.91 in
Visibility 3.0 miles
Clouds Overcast 200 ft
Dew Point Not available.
Humidity Not available.
Rainfall in
Snow Depth Not available.
5:59 AM 7:49 PM
Waxing Crescent, 5% visible
METAR KLDJ 280955Z AUTO 00000KT 3SM BR OVC002 14/14 A2991 RMK AO2 LTG DSNT E T01410138

Get Your Daily Forecast Email!

Thanks for signing up!

Be on the lookout for a verification email in your inbox.

You'll start receiving severe weather alerts in your inbox..

×

10-Day Weather Forecast

Almanac

Astronomy

Apr. 28, 2017 Rise Set
Actual Time
Civil Twilight
Nautical Twilight
Astronomical Twilight
Moon
Length of Visible Light
Length of Day
Tomorrow will be .
, % of the Moon is Illuminated

Today's Extremes

State Highs State Lows

Community

WunderPhotos

WunderBlog® & News

Nearby

Air Quality

  Air Quality AQ Index Pollutant
Not available.

Snow Depth

Station Depth Elevation

Earthquake Activity

City Distance Mag. Time & Date
Minimum magnitude displayed is 2.5.

Coastal Water Temperatures

Place Temperature

Stations

Nearby Weather Stations

Station Location Temp. Windchill Dew Point Humidity Wind Precip. Elev Updated Type
                   

Watches & Warnings

Special Statement
Issued: 1:48 AM EDT Apr. 28, 2017 – National Weather Service

Areas of fog, locally dense, can be expected through the rest of
tonight. Visibilities will generally be under one mile, and less
than a quarter mile in isolated spots. When traveling, please
exercise caution and be prepared for reduced visibilities.
Visibilities should begin to improve just after sunrise.


148 am EDT Fri Apr 28 2017

Areas of fog, locally dense, can be expected through the rest of
tonight. Visibilities will generally be under one mile, and less
than a quarter mile in isolated spots. When traveling, please
exercise caution and be prepared for reduced visibilities.
Visibilities should begin to improve just after sunrise.